Flight Track Log - Related Links

Times and Time Zones

All times are in EDT time to prevent confusion due to time zone crossing. See the CAL220 flight status page for this flight to view local times or setup timezone preferences in your user account.

Time Position Orientation Groundspeed Altitude Reporting Facility
EDT Latitude Longitude Course Direction KTS MPH feet Rate Location/Type
Fri 09:12:00 PM 25.3650 121.9702 52° Northeast  Level Estimated
Fri 09:13:00 PM 25.4387 122.0752 52° Northeast  Level Estimated
Fri 09:14:00 PM 25.5123 122.1803 52° Northeast  Level Estimated
Fri 09:15:00 PM 25.5858 122.2855 52° Northeast  Level Estimated
Fri 09:16:00 PM 25.6593 122.3908 52° Northeast  Level Estimated
Fri 09:17:00 PM 25.7327 122.4963 52° Northeast  Level Estimated
Fri 09:18:00 PM 25.8060 122.6019 52° Northeast  Level Estimated
Fri 09:19:00 PM 25.8792 122.7076 52° Northeast  Level Estimated
Fri 09:20:00 PM 25.9524 122.8135 52° Northeast  Level Estimated
Fri 09:21:00 PM 26.0255 122.9195 52° Northeast  Level Estimated
Fri 09:22:00 PM 26.0985 123.0256 53° Northeast  Level Estimated
Fri 09:23:00 PM 26.1714 123.1319 53° Northeast  Level Estimated
Fri 09:24:00 PM 26.2443 123.2383 53° Northeast  Level Estimated
Fri 09:25:00 PM 26.3170 123.3448 53° Northeast  Level Estimated
Fri 09:26:00 PM 26.3897 123.4515 53° Northeast  Level Estimated
Fri 09:27:00 PM 26.4623 123.5583 53° Northeast  Level Estimated
Fri 09:28:00 PM 26.5349 123.6652 53° Northeast  Level Estimated
Fri 09:29:00 PM 26.6073 123.7723 53° Northeast  Level Estimated
Fri 09:30:00 PM 26.6797 123.8795 53° Northeast  Level Estimated
Fri 09:31:00 PM 26.7520 123.9868 53° Northeast  Level Estimated
Fri 09:32:00 PM 26.8242 124.0943 53° Northeast  Level Estimated
Fri 09:33:00 PM 26.8964 124.2019 53° Northeast  Level Estimated
Fri 09:34:00 PM 26.9684 124.3096 53° Northeast  Level Estimated
Fri 09:35:00 PM 27.0404 124.4175 53° Northeast  Level Estimated
Fri 09:36:00 PM 27.1123 124.5256 53° Northeast  Level Estimated
Fri 09:37:00 PM 27.1841 124.6337 53° Northeast  Level Estimated
Fri 09:38:00 PM 27.2558 124.7420 53° Northeast  Level Estimated
Fri 09:39:00 PM 27.3274 124.8505 53° Northeast  Level Estimated
Fri 09:40:00 PM 27.3990 124.9591 53° Northeast  Level Estimated
Fri 09:41:00 PM 27.4705 125.0678 53° Northeast  Level Estimated
Fri 09:42:00 PM 27.5418 125.1767 53° Northeast  Level Estimated
Fri 09:43:00 PM 27.6131 125.2857 54° Northeast  Level Estimated
Fri 09:44:00 PM 27.6844 125.3948 54° Northeast  Level Estimated
Fri 09:45:00 PM 27.7555 125.5041 54° Northeast  Level Estimated
Fri 09:46:00 PM 27.8265 125.6135 54° Northeast  Level Estimated
Fri 09:47:00 PM 27.8975 125.7231 54° Northeast  Level Estimated
Fri 09:48:00 PM 27.9684 125.8328 54° Northeast  Level Estimated
Fri 09:49:00 PM 28.0391 125.9427 54° Northeast  Level Estimated
Fri 09:50:00 PM 28.1098 126.0527 54° Northeast  Level Estimated
Fri 09:51:00 PM 28.1805 126.1629 54° Northeast  Level Estimated
Fri 09:52:00 PM 28.2510 126.2732 54° Northeast  Level Estimated
Fri 09:53:00 PM 28.3214 126.3836 54° Northeast  Level Estimated
Fri 09:54:00 PM 28.3917 126.4942 54° Northeast  Level Estimated
Fri 09:55:00 PM 28.4620 126.6049 54° Northeast  Level Estimated
Fri 09:56:00 PM 28.5322 126.7158 54° Northeast  Level Estimated
Fri 09:57:00 PM 28.6022 126.8269 54° Northeast  Level Estimated
Fri 09:58:00 PM 28.6722 126.9380 54° Northeast  Level Estimated
Fri 09:59:00 PM 28.7421 127.0494 54° Northeast  Level Estimated
Fri 10:00:00 PM 28.8119 127.1609 54° Northeast  Level Estimated
Fri 10:01:00 PM 28.8816 127.2725 54° Northeast  Level Estimated
Fri 10:02:00 PM 28.9512 127.3842 55° Northeast  Level Estimated
Fri 10:03:00 PM 29.0208 127.4962 55° Northeast  Level Estimated
Fri 10:04:00 PM 29.0902 127.6083 55° Northeast  Level Estimated
Fri 10:05:00 PM 29.1595 127.7205 55° Northeast  Level Estimated
Fri 10:06:00 PM 29.2288 127.8329 55° Northeast  Level Estimated
Fri 10:07:00 PM 29.2979 127.9454 55° Northeast  Level Estimated
Fri 10:08:00 PM 29.3670 128.0581 55° Northeast  Level Estimated
Fri 10:09:00 PM 29.4359 128.1709 55° Northeast  Level Estimated
Fri 10:10:00 PM 29.5048 128.2839 55° Northeast  Level Estimated
Fri 10:11:00 PM 29.5736 128.3971 55° Northeast  Level Estimated
Fri 10:12:00 PM 29.6422 128.5104 55° Northeast  Level Estimated
Fri 10:13:00 PM 29.7108 128.6238 55° Northeast  Level Estimated
Fri 10:14:00 PM 29.7793 128.7374 55° Northeast  Level Estimated
Fri 10:15:00 PM 29.8477 128.8512 55° Northeast  Level Estimated
Fri 10:16:00 PM 29.9160 128.9651 55° Northeast  Level Estimated
Fri 10:17:00 PM 29.9841 129.0792 55° Northeast  Level Estimated
Fri 10:18:00 PM 30.0522 129.1934 55° Northeast  Level Estimated
Fri 10:19:00 PM 30.1202 129.3078 55° Northeast  Level Estimated
Fri 10:20:00 PM 30.1881 129.4224 56° Northeast  Level Estimated
Fri 10:21:00 PM 30.2559 129.5371 56° Northeast  Level Estimated
Fri 10:22:00 PM 30.3236 129.6519 56° Northeast  Level Estimated
Fri 10:23:00 PM 30.3912 129.7670 56° Northeast  Level Estimated
Fri 10:24:00 PM 30.4587 129.8822 56° Northeast  Level Estimated
Fri 10:25:00 PM 30.5261 129.9975 56° Northeast  Level Estimated
Fri 10:26:00 PM 30.5933 130.1130 56° Northeast  Level Estimated
Fri 10:27:00 PM 30.6605 130.2287 56° Northeast  Level Estimated
Fri 10:28:00 PM 30.7276 130.3445 56° Northeast  Level Estimated
Fri 10:29:00 PM 30.7946 130.4605 56° Northeast  Level Estimated
Fri 10:30:00 PM 30.8615 130.5766 56° Northeast  Level Estimated
Fri 10:31:00 PM 30.9282 130.6929 56° Northeast  Level Estimated
Fri 10:32:00 PM 30.9949 130.8094 56° Northeast  Level Estimated
Fri 10:33:00 PM 31.0615 130.9260 56° Northeast  Level Estimated
Fri 10:34:00 PM 31.1279 131.0428 56° Northeast  Level Estimated
Fri 10:35:00 PM 31.1943 131.1598 56° Northeast  Level Estimated
Fri 10:36:00 PM 31.2605 131.2769 56° Northeast  Level Estimated
Fri 10:37:00 PM 31.3267 131.3942 57° Northeast  Level Estimated
Fri 10:38:00 PM 31.3927 131.5117 57° Northeast  Level Estimated
Fri 10:39:00 PM 31.4586 131.6293 57° Northeast  Level Estimated
Fri 10:40:00 PM 31.5244 131.7471 57° Northeast  Level Estimated
Fri 10:41:00 PM 31.5902 131.8650 57° Northeast  Level Estimated
Fri 10:42:00 PM 31.6558 131.9831 57° Northeast  Level Estimated
Fri 10:43:00 PM 31.7213 132.1014 57° Northeast  Level Estimated
Fri 10:44:00 PM 31.7866 132.2199 57° Northeast  Level Estimated
Fri 10:45:00 PM 31.8519 132.3385 57° Northeast  Level Estimated
Fri 10:46:00 PM 31.9171 132.4573 57° Northeast  Level Estimated
Fri 10:47:00 PM 31.9821 132.5762 57° Northeast  Level Estimated
Fri 10:48:00 PM 32.0471 132.6953 57° Northeast  Level Estimated
Fri 10:49:00 PM 32.1119 132.8146 57° Northeast  Level Estimated
Fri 10:50:00 PM 32.1766 132.9341 57° Northeast  Level Estimated
Fri 10:51:00 PM 32.2412 133.0537 57° Northeast  Level Estimated
Fri 10:52:00 PM 32.3057 133.1735 57° Northeast  Level Estimated
Fri 10:52:02 PM 32.9988 136.8345 44° Northeast 563 648 38,700  Level FlightAware ADS-B
Fri 10:52:42 PM 33.0724 136.9200 44° Northeast 559 643 38,000 -1,020 Descending FlightAware ADS-B
Fri 10:53:42 PM 33.1832 137.0487 45° Northeast 549 632 37,000 -950 Descending FlightAware ADS-B
Fri 10:54:23 PM 33.2562 137.1340 45° Northeast 545 627 36,400 -963 Descending FlightAware ADS-B
Fri 10:55:03 PM 33.3296 137.2199 45° Northeast 537 618 35,700 -840 Descending FlightAware ADS-B
Fri 10:56:03 PM 33.4355 137.3456 48° Northeast 538 619 35,000 -416 Descending FlightAware ADS-B
Fri 10:56:44 PM 33.4996 137.4423 54° Northeast 551 634 35,000  Level FlightAware ADS-B
Fri 10:57:24 PM 33.5607 137.5399 54° Northeast 543 625 35,000  Level FlightAware ADS-B
Fri 10:58:04 PM 33.6203 137.6351 54° Northeast 548 631 35,000  Level FlightAware ADS-B
Fri 10:58:42 PM 33.6822 137.7280 44° Northeast 540 621 35,000  Level FlightAware ADS-B
Fri 10:59:44 PM 33.8034 137.8277 34° Northeast 518 596 35,000 -59 Level FlightAware ADS-B
Fri 11:00:24 PM 33.8863 137.8927 33° Northeast 519 597 34,900 -500 Descending FlightAware ADS-B
Fri 11:00:44 PM 33.9245 137.9289 44° Northeast 534 615 34,500 -1,200 Descending FlightAware ADS-B
Fri 11:01:24 PM 33.9912 138.0197 50° Northeast 544 626 33,700 -1,273 Descending FlightAware ADS-B
Fri 11:02:23 PM 34.0911 138.1569 49° Northeast 556 640 32,400 -1,714 Descending FlightAware ADS-B
Fri 11:03:02 PM 34.1593 138.2473 48° Northeast 549 632 30,900 -2,127 Descending FlightAware ADS-B
Fri 11:03:42 PM 34.2270 138.3369 49° Northeast 536 617 29,600 -1,976 Descending FlightAware ADS-B
Fri 11:04:24 PM 34.2958 138.4302 49° Northeast 531 611 28,200 -1,829 Descending FlightAware ADS-B
Fri 11:05:04 PM 34.3584 138.5160 49° Northeast 517 595 27,100 -1,875 Descending FlightAware ADS-B
Fri 11:05:44 PM 34.4222 138.6037 49° Northeast 512 589 25,700 -2,025 Descending FlightAware ADS-B
Fri 11:06:24 PM 34.4819 138.6872 50° Northeast 498 573 24,400 -2,000 Descending FlightAware ADS-B
Fri 11:07:23 PM 34.5713 138.8183 59° Northeast 500 575 22,400 -1,939 Descending FlightAware ADS-B
Fri 11:08:03 PM 34.5936 138.9240 84° East 490 564 21,200 -1,725 Descending FlightAware ADS-B
Fri 11:08:43 PM 34.6059 139.0312 82° East 480 552 20,100 -1,425 Descending FlightAware ADS-B
Fri 11:09:23 PM 34.6181 139.1357 82° East 472 543 19,300 -1,091 Descending FlightAware ADS-B
Fri 11:10:00 PM 34.6291 139.2319 82° East 461 531 18,700 -793 Descending FlightAware ADS-B
Fri 11:11:24 PM 34.6524 139.4367 83° East 416 479 17,700 -923 Descending FlightAware ADS-B
Fri 11:12:23 PM 34.6676 139.5729 82° East 407 468 16,500 -1,260 Descending FlightAware ADS-B
Fri 11:13:04 PM 34.6778 139.6655 83° East 405 466 15,600 -1,275 Descending FlightAware ADS-B
Fri 11:13:43 PM 34.6872 139.7500 82° East 397 457 14,800 -1,275 Descending FlightAware ADS-B
Fri 11:14:24 PM 34.6970 139.8395 83° East 389 448 13,900 -950 Descending FlightAware ADS-B
Fri 11:15:24 PM 34.7290 139.9577 55° Northeast 342 394 13,200 -788 Descending FlightAware ADS-B
Fri 11:16:03 PM 34.7626 140.0157 55° Northeast 313 360 12,600 -923 Descending FlightAware ADS-B
Fri 11:16:42 PM 34.7947 140.0711 56° Northeast 293 337 12,000 -667 Descending FlightAware ADS-B
Fri 11:17:42 PM 34.8422 140.1532 56° Northeast 294 338 11,500 -353 Descending FlightAware ADS-B
Fri 11:18:24 PM 34.8745 140.2084 54° Northeast 270 311 11,400 -290 Descending FlightAware ADS-B
Fri 11:18:44 PM 34.8951 140.2221 15° North 234 269 11,200 -600 Descending FlightAware ADS-B
Fri 11:19:04 PM 34.9156 140.2206 344° North 218 251 11,000 -500 Descending FlightAware ADS-B
Fri 11:19:44 PM 34.9502 140.1971 330° Northwest 205 236 10,700 -450 Descending FlightAware ADS-B
Fri 11:20:24 PM 34.9845 140.1741 330° Northwest 208 239 10,400 -545 Descending FlightAware ADS-B
Fri 11:21:23 PM 35.0337 140.1397 329° Northwest 187 215 9,800 -608 Descending FlightAware ADS-B
Fri 11:21:43 PM 35.0490 140.1290 330° Northwest 188 216 9,600 -585 Descending FlightAware ADS-B
Fri 11:22:04 PM 35.0644 140.1182 330° Northwest 188 216 9,400 -815 Descending FlightAware ADS-B
Fri 11:23:04 PM 35.1108 140.0857 330° Northwest 190 219 8,500 -987 Descending FlightAware ADS-B
Fri 11:23:23 PM 35.1259 140.0752 330° Northwest 190 219 8,100 -1,350 Descending FlightAware ADS-B
Fri 11:23:44 PM 35.1420 140.0639 329° Northwest 186 214 7,600 -1,024 Descending FlightAware ADS-B
Fri 11:24:04 PM 35.1571 140.0534 331° Northwest 189 217 7,400 -615 Descending FlightAware ADS-B
Fri 11:24:23 PM 35.1719 140.0429 329° Northwest 192 221 7,200 -600 Descending FlightAware ADS-B
Fri 11:25:04 PM 35.2039 140.0204 329° Northwest 186 214 6,800 -590 Descending FlightAware ADS-B
Fri 11:25:24 PM 35.2205 140.0086 329° Northwest 194 223 6,600 -615 Descending FlightAware ADS-B
Fri 11:25:43 PM 35.2356 139.9981 329° Northwest 190 219 6,400 -600 Descending FlightAware ADS-B
Fri 11:26:24 PM 35.2665 139.9765 329° Northwest 189 217 6,000 -593 Descending FlightAware ADS-B
Fri 11:27:04 PM 35.2995 139.9533 330° Northwest 202 232 5,600 -700 Descending FlightAware ADS-B
Fri 11:27:24 PM 35.3156 139.9418 329° Northwest 206 237 5,300 -1,077 Descending FlightAware ADS-B
Fri 11:27:43 PM 35.3321 139.9302 329° Northwest 204 235 4,900 -1,350 Descending FlightAware ADS-B
Fri 11:28:04 PM 35.3491 139.9183 329° Northwest 205 236 4,400 -1,317 Descending FlightAware ADS-B
Fri 11:28:24 PM 35.3670 139.9056 330° Northwest 208 239 4,000 -1,100 Descending FlightAware ADS-B
Fri 11:29:04 PM 35.3987 139.8833 329° Northwest 189 217 3,300 -1,119 Descending FlightAware ADS-B
Fri 11:29:23 PM 35.4136 139.8727 330° Northwest 186 214 2,900 -1,050 Descending FlightAware ADS-B
Fri 11:29:44 PM 35.4286 139.8622 329° Northwest 172 198 2,600 -900 Descending FlightAware ADS-B
Fri 11:30:03 PM 35.4423 139.8524 330° Northwest 172 198 2,300 -923 Descending FlightAware ADS-B
Fri 11:30:23 PM 35.4551 139.8434 328° Northwest 154 177 2,000 -878 Descending FlightAware ADS-B
Fri 11:30:44 PM 35.4684 139.8340 330° Northwest 153 176 1,700 -878 Descending FlightAware ADS-B
Fri 11:31:04 PM 35.4802 139.8256 328° Northwest 137 158 1,400 -808 Descending FlightAware ADS-B
Fri 11:31:36 PM 35.4971 139.8136 329° Northwest 136 157 1,000 -712 Descending FlightAware ADS-B
Fri 11:32:03 PM 35.5129 139.8024 328° Northwest 134 154 700 -727 Descending FlightAware ADS-B
Fri 11:32:42 PM 35.5349 139.7870 329° Northwest 136 157 200 -769 Descending FlightAware ADS-B

Login

Don't have an account? Register now (free) for customized features, flight alerts, and more!